Time;durP1;ratioP1;P1;durP2;ratioP2;P2;SDS_P1;SDS_P2;PMS_P1;PMS_P2;Temp;Humidity;BMP_temperature;BMP_pressure;BME280_temperature;BME280_humidity;BME280_pressure;Samples;Min_cycle;Max_cycle;Signal;HPM_P1;HPM_P2
2023/01/21 00:00:02;;;;;;;21.20;12.43;;;0.60;99.90;;;;;;5091604;28;20457;-68
2023/01/21 00:02:28;;;;;;;18.05;12.45;;;0.60;99.90;;;;;;5092124;28;20036;-68
2023/01/21 00:04:53;;;;;;;20.05;12.57;;;0.60;99.90;;;;;;5093727;28;20024;-68
2023/01/21 00:07:19;;;;;;;18.88;12.50;;;0.60;99.90;;;;;;5095711;28;20070;-67
2023/01/21 00:09:44;;;;;;;21.05;11.95;;;0.60;99.90;;;;;;5095642;28;20024;-69
2023/01/21 00:12:10;;;;;;;18.92;11.93;;;0.60;99.90;;;;;;5095273;28;20354;-68
2023/01/21 00:14:36;;;;;;;19.13;12.48;;;0.60;99.90;;;;;;5095591;28;20031;-68
2023/01/21 00:17:01;;;;;;;20.77;12.73;;;0.60;99.90;;;;;;5095109;28;20024;-68
2023/01/21 00:19:28;;;;;;;20.33;12.77;;;0.60;99.90;;;;;;5095509;28;20380;-68
2023/01/21 00:21:54;;;;;;;19.50;12.00;;;0.60;99.90;;;;;;5094808;28;20036;-68
2023/01/21 00:24:21;;;;;;;23.08;13.88;;;0.60;99.90;;;;;;5095341;28;20031;-67
2023/01/21 00:26:47;;;;;;;22.15;13.18;;;0.60;99.90;;;;;;5095182;28;20032;-68
2023/01/21 00:29:13;;;;;;;19.23;13.05;;;0.60;99.90;;;;;;5094690;28;20357;-68
2023/01/21 00:31:38;;;;;;;22.35;12.80;;;0.60;99.90;;;;;;5095239;28;20425;-68
2023/01/21 00:34:04;;;;;;;19.35;12.98;;;0.60;99.90;;;;;;5094595;28;20028;-68
2023/01/21 00:36:30;;;;;;;21.15;12.85;;;0.50;99.90;;;;;;5094799;28;20056;-68
2023/01/21 00:38:56;;;;;;;19.48;12.85;;;0.50;99.90;;;;;;5094407;28;20024;-68
2023/01/21 00:41:25;;;;;;;22.30;13.45;;;0.50;99.90;;;;;;5094932;28;20047;-68
2023/01/21 00:43:50;;;;;;;23.13;14.15;;;0.50;99.90;;;;;;5094627;28;20469;-68
2023/01/21 00:46:16;;;;;;;24.42;15.55;;;0.50;99.90;;;;;;5094532;28;20020;-67
2023/01/21 00:48:42;;;;;;;20.27;13.15;;;0.50;99.90;;;;;;5095036;28;20415;-67
2023/01/21 00:51:08;;;;;;;19.85;13.38;;;0.50;99.90;;;;;;5094416;28;20085;-67
2023/01/21 00:53:37;;;;;;;22.13;13.02;;;0.50;99.90;;;;;;5094875;28;20062;-67
2023/01/21 00:56:08;;;;;;;17.88;12.77;;;0.50;99.90;;;;;;5094335;28;20028;-68
2023/01/21 00:58:34;;;;;;;17.25;10.90;;;0.50;99.90;;;;;;5094823;28;20024;-68
2023/01/21 01:01:12;;;;;;;20.38;13.73;;;0.50;99.90;;;;;;5092971;28;20431;-68
2023/01/21 01:03:39;;;;;;;21.67;13.13;;;0.50;99.90;;;;;;5094374;28;20472;-67
2023/01/21 01:06:08;;;;;;;22.85;14.20;;;0.50;99.90;;;;;;5093795;28;20468;-66
2023/01/21 01:08:34;;;;;;;19.30;12.48;;;0.50;99.90;;;;;;5074165;28;20075;-67
2023/01/21 01:11:00;;;;;;;19.33;12.07;;;0.50;99.90;;;;;;5073946;28;20028;-67
2023/01/21 01:13:26;;;;;;;17.95;11.88;;;0.60;99.90;;;;;;5074468;28;20048;-67
2023/01/21 01:15:54;;;;;;;19.70;11.10;;;0.60;99.90;;;;;;5073980;28;20032;-68
2023/01/21 01:18:21;;;;;;;21.92;12.18;;;0.50;99.90;;;;;;5074208;28;20024;-67
2023/01/21 01:20:47;;;;;;;20.67;12.02;;;0.50;99.90;;;;;;5073734;28;20028;-69
2023/01/21 01:23:13;;;;;;;17.83;11.57;;;0.50;99.90;;;;;;5073529;28;20090;-68
2023/01/21 01:25:39;;;;;;;19.38;11.30;;;0.50;99.90;;;;;;5074048;28;20025;-68
2023/01/21 01:28:05;;;;;;;18.45;10.95;;;0.50;99.90;;;;;;5073478;28;20025;-68
2023/01/21 01:30:31;;;;;;;19.25;11.35;;;0.50;99.90;;;;;;5074088;28;20044;-68
2023/01/21 01:32:56;;;;;;;17.85;11.15;;;0.50;99.90;;;;;;5073110;28;20043;-68
2023/01/21 01:35:22;;;;;;;18.02;11.20;;;0.60;99.90;;;;;;5073653;28;20530;-68
2023/01/21 01:37:48;;;;;;;19.27;11.52;;;0.50;99.90;;;;;;5073281;28;20029;-68
2023/01/21 01:40:14;;;;;;;17.00;11.02;;;0.60;99.90;;;;;;5073081;28;20071;-68
2023/01/21 01:42:39;;;;;;;16.13;10.90;;;0.60;99.90;;;;;;5073427;28;20032;-68
2023/01/21 01:45:19;;;;;;;18.77;10.27;;;0.60;99.90;;;;;;5072741;28;20047;-68
2023/01/21 01:47:49;;;;;;;18.30;10.75;;;0.60;99.90;;;;;;5073033;28;20427;-68
2023/01/21 01:50:18;;;;;;;17.50;10.85;;;0.60;99.90;;;;;;5075934;28;20020;-68
2023/01/21 01:52:45;;;;;;;20.15;11.60;;;0.60;99.90;;;;;;5093537;28;20039;-68
2023/01/21 01:55:12;;;;;;;15.98;10.15;;;0.60;99.90;;;;;;5092857;28;20019;-68
2023/01/21 01:57:42;;;;;;;18.88;11.27;;;0.60;99.90;;;;;;5093416;28;20031;-68
2023/01/21 02:00:10;;;;;;;17.55;10.93;;;0.60;99.90;;;;;;5092925;28;20028;-68
2023/01/21 02:02:38;;;;;;;16.80;10.52;;;0.50;99.90;;;;;;5092932;28;20043;-68
2023/01/21 02:05:07;;;;;;;17.00;9.98;;;0.50;99.90;;;;;;5092815;28;20457;-68
2023/01/21 02:07:38;;;;;;;20.25;10.52;;;0.60;99.90;;;;;;5093340;28;20024;-68
2023/01/21 02:10:10;;;;;;;16.88;9.68;;;0.60;99.90;;;;;;5092952;28;20051;-68
2023/01/21 02:12:38;;;;;;;17.58;10.75;;;0.60;99.90;;;;;;5075320;28;20040;-68
2023/01/21 02:15:05;;;;;;;15.45;9.13;;;0.60;99.90;;;;;;5092855;28;20036;-68
2023/01/21 02:17:37;;;;;;;15.02;9.70;;;0.60;99.90;;;;;;5092933;28;20377;-68
2023/01/21 02:20:12;;;;;;;18.45;10.30;;;0.60;99.90;;;;;;5092892;28;20028;-68
2023/01/21 02:23:04;;;;;;;16.98;10.23;;;0.60;99.90;;;;;;5093288;28;20067;-68
2023/01/21 02:26:07;;;;;;;18.15;9.68;;;0.60;99.90;;;;;;5093788;28;20028;-68
2023/01/21 02:28:33;;;;;;;19.02;10.48;;;0.60;99.90;;;;;;5097572;28;20024;-68
2023/01/21 02:31:40;;;;;;;17.08;10.05;;;0.60;99.90;;;;;;5099143;28;20047;-68
2023/01/21 02:34:12;;;;;;;16.98;9.93;;;0.60;99.90;;;;;;5092579;28;20022;-68
2023/01/21 02:37:00;;;;;;;22.27;11.13;;;0.60;99.90;;;;;;5093211;28;20491;-68
2023/01/21 02:39:54;;;;;;;19.75;10.25;;;0.60;99.90;;;;;;5092912;28;20075;-68
2023/01/21 02:42:26;;;;;;;18.27;10.48;;;0.60;99.90;;;;;;5092441;28;20524;-68
2023/01/21 02:44:57;;;;;;;18.42;10.30;;;0.60;99.90;;;;;;5093078;28;20064;-68
2023/01/21 02:47:37;;;;;;;18.48;9.68;;;0.60;99.90;;;;;;5092345;28;20032;-68
2023/01/21 02:50:29;;;;;;;15.52;9.13;;;0.60;99.90;;;;;;5092392;28;20032;-68
2023/01/21 02:53:00;;;;;;;19.58;10.43;;;0.60;99.90;;;;;;5092830;28;20035;-67
2023/01/21 02:55:35;;;;;;;17.50;9.88;;;0.60;99.90;;;;;;5092389;28;20024;-68
2023/01/21 02:58:06;;;;;;;19.05;9.82;;;0.60;99.90;;;;;;5092600;28;20028;-68
2023/01/21 03:00:55;;;;;;;18.08;9.68;;;0.60;99.90;;;;;;5092727;28;20036;-69
2023/01/21 03:03:35;;;;;;;15.85;9.30;;;0.60;99.90;;;;;;5080533;28;20059;-68
2023/01/21 03:06:25;;;;;;;18.25;9.18;;;0.60;99.90;;;;;;5092666;28;20028;-68
2023/01/21 03:08:55;;;;;;;17.30;9.10;;;0.60;99.90;;;;;;5083613;28;20042;-68
2023/01/21 03:11:22;;;;;;;14.80;8.38;;;0.60;99.90;;;;;;5072112;28;20453;-68
2023/01/21 03:17:27;;;;;;;17.33;9.25;;;0.70;99.90;;;;;;5072377;28;20128;-68
2023/01/21 03:20:04;;;;;;;17.17;9.15;;;0.60;99.90;;;;;;5048425;28;20481;-68
2023/01/21 03:22:33;;;;;;;14.40;8.80;;;0.70;99.90;;;;;;5072373;28;20453;-68
2023/01/21 03:25:01;;;;;;;14.68;9.02;;;0.70;99.90;;;;;;5072186;28;20036;-68
2023/01/21 03:27:29;;;;;;;15.48;8.60;;;0.70;99.90;;;;;;5071653;28;20112;-68
2023/01/21 03:30:17;;;;;;;14.63;8.80;;;0.70;99.90;;;;;;5072128;28;20033;-68
2023/01/21 03:32:46;;;;;;;15.32;8.95;;;0.60;99.90;;;;;;5072611;28;20131;-68
2023/01/21 03:35:18;;;;;;;16.20;9.43;;;0.70;99.90;;;;;;5071803;28;20112;-68
2023/01/21 03:38:17;;;;;;;15.23;8.75;;;0.70;99.90;;;;;;5072165;28;20025;-68
2023/01/21 03:40:52;;;;;;;16.25;8.80;;;0.70;99.90;;;;;;5075241;28;20051;-68
2023/01/21 03:43:19;;;;;;;15.07;8.40;;;0.70;99.90;;;;;;5074328;28;20028;-69
2023/01/21 03:45:50;;;;;;;18.63;8.65;;;0.70;99.90;;;;;;5075848;28;20020;-68
2023/01/21 03:48:34;;;;;;;16.13;9.60;;;0.70;99.90;;;;;;5087027;28;20032;-69
2023/01/21 03:51:12;;;;;;;15.18;8.68;;;0.80;99.90;;;;;;5096198;28;20020;-68
2023/01/21 03:53:37;;;;;;;14.15;8.75;;;0.70;99.90;;;;;;5096259;28;20060;-67
2023/01/21 03:56:03;;;;;;;15.85;9.60;;;0.80;99.90;;;;;;5096058;28;20039;-68
2023/01/21 03:58:29;;;;;;;14.65;8.68;;;0.80;99.90;;;;;;5095667;28;20029;-69
2023/01/21 04:00:56;;;;;;;16.60;9.05;;;0.90;99.90;;;;;;5096107;28;20039;-68
2023/01/21 04:03:21;;;;;;;18.45;8.77;;;0.90;99.90;;;;;;5095311;28;20032;-67
2023/01/21 04:05:47;;;;;;;16.40;9.32;;;0.90;99.90;;;;;;5095927;28;20024;-67
2023/01/21 04:08:13;;;;;;;13.88;8.77;;;0.90;99.90;;;;;;5095477;28;20026;-69
2023/01/21 04:10:39;;;;;;;16.05;9.15;;;0.90;99.90;;;;;;5096240;28;20115;-68
2023/01/21 04:13:05;;;;;;;14.95;9.00;;;0.90;99.90;;;;;;5095290;28;20101;-68
2023/01/21 04:15:30;;;;;;;17.80;9.93;;;0.90;99.90;;;;;;5095211;28;20085;-67
2023/01/21 04:17:56;;;;;;;14.90;8.85;;;1.00;99.90;;;;;;5095950;28;20108;-68
2023/01/21 04:20:22;;;;;;;14.73;8.73;;;1.00;99.90;;;;;;5094851;28;20365;-68
2023/01/21 04:22:47;;;;;;;16.05;9.60;;;1.00;99.90;;;;;;5094415;28;20050;-68
2023/01/21 04:25:13;;;;;;;16.45;9.43;;;1.00;99.90;;;;;;5094967;28;20060;-68
2023/01/21 04:27:39;;;;;;;15.02;9.60;;;1.00;99.90;;;;;;5095156;28;20069;-68
2023/01/21 04:30:05;;;;;;;16.83;9.18;;;1.00;99.90;;;;;;5095299;28;20028;-68
2023/01/21 04:32:31;;;;;;;17.35;10.15;;;1.00;99.90;;;;;;5095149;28;20043;-68
2023/01/21 04:34:56;;;;;;;15.00;9.18;;;1.00;99.90;;;;;;5095255;28;20020;-68
2023/01/21 04:37:22;;;;;;;15.23;9.55;;;1.00;99.90;;;;;;5094576;28;20035;-68
2023/01/21 04:39:47;;;;;;;15.50;9.25;;;1.00;99.90;;;;;;5095122;28;20400;-68
2023/01/21 04:42:13;;;;;;;14.63;8.57;;;1.00;99.90;;;;;;5094658;28;20039;-68
2023/01/21 04:44:39;;;;;;;13.82;8.43;;;1.00;99.90;;;;;;5095180;28;20077;-68
2023/01/21 04:47:04;;;;;;;16.67;9.63;;;1.00;99.90;;;;;;5095175;28;20020;-68
2023/01/21 04:49:30;;;;;;;13.98;8.35;;;1.00;99.90;;;;;;5094780;28;20032;-68
2023/01/21 04:51:56;;;;;;;14.00;8.30;;;1.00;99.90;;;;;;5095019;28;20032;-68
2023/01/21 04:54:21;;;;;;;15.35;8.85;;;1.00;99.90;;;;;;5094177;28;20028;-68
2023/01/21 04:56:47;;;;;;;14.18;8.43;;;1.00;99.90;;;;;;5094943;28;20082;-68
2023/01/21 04:59:13;;;;;;;14.05;8.65;;;1.00;99.90;;;;;;5094517;28;20024;-68
2023/01/21 05:01:38;;;;;;;13.38;8.27;;;1.00;99.90;;;;;;5094662;28;20042;-68
2023/01/21 05:04:04;;;;;;;15.88;8.85;;;1.00;99.90;;;;;;5094777;28;20047;-68
2023/01/21 05:06:29;;;;;;;12.73;8.00;;;1.00;99.90;;;;;;5094596;28;20032;-68
2023/01/21 05:08:55;;;;;;;12.65;7.97;;;1.00;99.90;;;;;;5082816;28;20032;-68
2023/01/21 05:11:21;;;;;;;13.55;8.50;;;1.00;99.90;;;;;;5074094;28;20070;-68
2023/01/21 05:13:46;;;;;;;14.23;8.30;;;1.00;99.90;;;;;;5074579;28;20115;-68
2023/01/21 05:16:13;;;;;;;12.07;8.27;;;1.00;99.90;;;;;;5073948;28;20020;-68
2023/01/21 05:18:44;;;;;;;15.07;8.73;;;1.00;99.90;;;;;;5074324;28;20028;-68
2023/01/21 05:21:10;;;;;;;15.82;8.63;;;1.00;99.90;;;;;;5074187;28;20031;-68
2023/01/21 05:23:35;;;;;;;13.73;7.93;;;1.00;99.90;;;;;;5073786;28;20033;-68
2023/01/21 05:26:01;;;;;;;13.45;7.78;;;1.00;99.90;;;;;;5073978;28;20024;-67
2023/01/21 05:28:27;;;;;;;13.82;8.15;;;1.00;99.90;;;;;;5073238;28;20551;-67
2023/01/21 05:30:52;;;;;;;13.98;8.00;;;1.00;99.90;;;;;;5073892;28;20550;-67
2023/01/21 05:33:22;;;;;;;14.13;7.55;;;1.10;99.90;;;;;;5072238;28;20047;-66
2023/01/21 05:35:48;;;;;;;13.30;7.55;;;1.10;99.90;;;;;;5073736;28;20063;-67
2023/01/21 05:38:13;;;;;;;12.73;7.72;;;1.00;99.90;;;;;;5073190;28;20438;-68
2023/01/21 05:40:39;;;;;;;13.48;7.95;;;1.00;99.90;;;;;;5073791;28;20646;-67
2023/01/21 05:43:05;;;;;;;14.32;7.93;;;1.00;99.90;;;;;;5073692;28;20457;-67
2023/01/21 05:45:30;;;;;;;12.98;7.75;;;1.00;99.90;;;;;;5072939;28;20031;-67
2023/01/21 05:47:56;;;;;;;14.52;8.07;;;1.00;99.90;;;;;;5075632;28;20041;-67
2023/01/21 05:50:21;;;;;;;14.73;8.43;;;0.90;99.90;;;;;;5082519;28;20029;-67
2023/01/21 05:52:47;;;;;;;16.48;8.57;;;0.90;99.90;;;;;;5077568;28;20024;-67
2023/01/21 05:55:13;;;;;;;14.02;7.70;;;0.90;99.90;;;;;;5080946;28;20169;-67
2023/01/21 05:57:38;;;;;;;13.48;8.15;;;0.90;99.90;;;;;;5093206;28;20024;-66
2023/01/21 06:00:05;;;;;;;12.63;8.30;;;0.90;99.90;;;;;;5093632;28;20025;-67
2023/01/21 06:02:30;;;;;;;13.43;7.45;;;0.90;99.90;;;;;;5092073;28;20036;-67
2023/01/21 06:04:56;;;;;;;12.13;6.72;;;0.90;99.90;;;;;;5093238;28;20115;-67
2023/01/21 06:07:22;;;;;;;11.82;6.93;;;0.80;99.90;;;;;;5093141;28;20067;-67
2023/01/21 06:09:47;;;;;;;15.00;8.43;;;0.90;99.90;;;;;;5093483;28;20474;-67
2023/01/21 06:12:13;;;;;;;12.23;7.40;;;0.90;99.90;;;;;;5092204;28;20434;-67
2023/01/21 06:14:38;;;;;;;14.05;7.15;;;0.90;99.90;;;;;;5092936;28;20391;-67
2023/01/21 06:17:04;;;;;;;12.77;6.93;;;0.90;99.90;;;;;;5093578;28;20024;-67
2023/01/21 06:19:30;;;;;;;14.00;7.10;;;0.90;99.90;;;;;;5092781;28;20024;-67
2023/01/21 06:21:55;;;;;;;13.50;7.57;;;0.90;99.90;;;;;;5092248;28;20437;-67
2023/01/21 06:24:21;;;;;;;13.23;7.07;;;0.90;99.90;;;;;;5092845;28;20412;-67
2023/01/21 06:26:47;;;;;;;10.77;6.82;;;0.90;99.90;;;;;;5093034;28;20414;-68
2023/01/21 06:29:12;;;;;;;12.18;6.30;;;0.90;99.90;;;;;;5093066;28;20055;-67
2023/01/21 06:31:38;;;;;;;11.82;6.95;;;0.90;99.90;;;;;;5092402;28;20107;-67
2023/01/21 06:34:04;;;;;;;12.80;7.07;;;0.90;99.90;;;;;;5092982;28;20038;-67
2023/01/21 06:36:30;;;;;;;12.60;6.80;;;0.90;99.90;;;;;;5092344;28;20021;-67
2023/01/21 06:38:55;;;;;;;12.70;7.18;;;0.90;99.90;;;;;;5092710;28;20028;-67
2023/01/21 06:41:21;;;;;;;10.55;5.97;;;0.90;99.90;;;;;;5092709;28;20039;-68
2023/01/21 06:43:47;;;;;;;11.23;6.75;;;0.90;99.90;;;;;;5092744;28;20024;-67
2023/01/21 06:46:12;;;;;;;10.27;6.47;;;0.90;99.90;;;;;;5092966;28;20021;-67
2023/01/21 06:48:38;;;;;;;10.73;6.25;;;0.90;99.90;;;;;;5092856;28;20020;-67
2023/01/21 06:51:04;;;;;;;11.93;6.45;;;1.00;99.90;;;;;;5092715;28;20472;-67
2023/01/21 06:53:29;;;;;;;10.00;6.15;;;1.00;99.90;;;;;;5092468;28;20035;-67
2023/01/21 06:55:55;;;;;;;12.38;6.60;;;1.00;99.90;;;;;;5092705;28;20024;-68
2023/01/21 06:58:21;;;;;;;11.80;7.00;;;1.00;99.90;;;;;;5092258;28;20408;-68
2023/01/21 07:00:46;;;;;;;11.65;6.40;;;0.90;99.90;;;;;;5092615;28;20036;-68
2023/01/21 07:03:12;;;;;;;10.80;6.70;;;0.90;99.90;;;;;;5092676;28;20028;-67
2023/01/21 07:05:38;;;;;;;10.52;5.90;;;0.90;99.90;;;;;;5092276;28;20480;-68
2023/01/21 07:08:04;;;;;;;13.93;7.18;;;0.90;99.90;;;;;;5087639;28;20024;-68
2023/01/21 07:10:30;;;;;;;11.95;6.88;;;0.90;99.90;;;;;;5072270;28;20063;-68
2023/01/21 07:12:56;;;;;;;11.65;6.68;;;0.90;99.90;;;;;;5072820;28;20049;-68
2023/01/21 07:15:21;;;;;;;9.95;6.60;;;0.80;99.90;;;;;;5076254;28;20517;-69
2023/01/21 07:17:47;;;;;;;10.52;6.38;;;0.80;99.90;;;;;;5076699;28;20119;-69
2023/01/21 07:20:12;;;;;;;11.68;6.07;;;0.80;99.90;;;;;;5076740;28;20411;-67
2023/01/21 07:22:38;;;;;;;11.80;6.43;;;0.80;99.90;;;;;;5075792;28;20033;-67
2023/01/21 07:25:04;;;;;;;12.50;7.00;;;0.80;99.90;;;;;;5074981;28;20028;-67
2023/01/21 07:27:30;;;;;;;11.38;6.30;;;0.80;99.90;;;;;;5077254;28;20033;-67
2023/01/21 07:29:56;;;;;;;12.63;7.20;;;0.80;99.90;;;;;;5078795;28;20027;-67
2023/01/21 07:32:22;;;;;;;14.13;6.82;;;0.80;99.90;;;;;;5078307;28;20490;-69
2023/01/21 07:34:47;;;;;;;14.55;6.93;;;0.80;99.90;;;;;;5078883;28;20104;-68
2023/01/21 07:37:13;;;;;;;9.48;6.03;;;0.90;99.90;;;;;;5078475;28;20025;-67
2023/01/21 07:39:39;;;;;;;11.02;6.28;;;0.90;99.90;;;;;;5077297;28;20124;-67
2023/01/21 07:42:04;;;;;;;8.63;5.43;;;1.00;99.90;;;;;;5078683;28;20036;-67
2023/01/21 07:44:30;;;;;;;9.95;6.30;;;1.00;99.90;;;;;;5077334;28;20330;-67
2023/01/21 07:46:56;;;;;;;10.27;6.40;;;1.00;99.90;;;;;;5077318;28;20054;-67
2023/01/21 07:49:22;;;;;;;10.95;5.65;;;1.10;99.90;;;;;;5076090;28;20024;-68
2023/01/21 07:51:48;;;;;;;10.02;5.82;;;1.10;99.90;;;;;;5075705;28;20032;-67
2023/01/21 07:54:14;;;;;;;10.25;6.22;;;1.10;99.90;;;;;;5075837;28;20096;-67
2023/01/21 07:56:40;;;;;;;10.05;5.93;;;1.10;99.90;;;;;;5075703;28;20127;-68
2023/01/21 07:59:06;;;;;;;9.05;5.57;;;1.10;99.90;;;;;;5086636;28;20027;-68
2023/01/21 08:01:32;;;;;;;9.70;5.43;;;1.10;99.90;;;;;;5095469;28;20043;-68
2023/01/21 08:03:58;;;;;;;10.77;6.40;;;1.10;99.90;;;;;;5095801;28;20473;-68
2023/01/21 08:06:24;;;;;;;9.80;6.00;;;1.10;99.90;;;;;;5095468;28;20429;-69
2023/01/21 08:08:50;;;;;;;8.77;5.72;;;1.10;99.90;;;;;;5095531;28;20032;-67
2023/01/21 08:11:15;;;;;;;11.15;6.30;;;1.10;99.90;;;;;;5095654;28;20071;-68
2023/01/21 08:13:41;;;;;;;9.75;6.15;;;1.10;99.90;;;;;;5095226;28;20050;-68
2023/01/21 08:16:10;;;;;;;8.95;5.38;;;1.10;99.90;;;;;;5095689;28;20035;-68
2023/01/21 08:18:36;;;;;;;10.40;5.88;;;1.10;99.90;;;;;;5095316;28;20020;-67
2023/01/21 08:21:02;;;;;;;10.38;5.85;;;1.10;99.90;;;;;;5095313;28;20433;-67
2023/01/21 08:23:27;;;;;;;8.85;5.57;;;1.10;99.90;;;;;;5095259;28;20108;-67
2023/01/21 08:25:53;;;;;;;10.88;5.88;;;1.10;99.90;;;;;;5094536;28;20031;-68
2023/01/21 08:28:20;;;;;;;10.80;5.90;;;1.20;99.90;;;;;;5095267;28;20024;-67
2023/01/21 08:30:46;;;;;;;10.13;5.75;;;1.20;99.90;;;;;;5094581;28;20089;-67
2023/01/21 08:33:11;;;;;;;9.20;4.72;;;1.20;99.90;;;;;;5095449;28;20465;-67
2023/01/21 08:35:37;;;;;;;7.03;4.50;;;1.20;99.90;;;;;;5094744;28;20035;-67
2023/01/21 08:38:03;;;;;;;7.78;4.97;;;1.20;99.90;;;;;;5095248;28;20020;-67
2023/01/21 08:40:29;;;;;;;9.13;5.13;;;1.20;99.90;;;;;;5094509;28;20108;-68
2023/01/21 08:42:59;;;;;;;8.18;5.18;;;1.20;99.90;;;;;;5095028;28;20081;-67
2023/01/21 08:45:25;;;;;;;10.10;5.38;;;1.20;99.90;;;;;;5095343;28;20103;-68
2023/01/21 08:47:51;;;;;;;8.50;5.63;;;1.20;99.90;;;;;;5094488;28;20050;-68
2023/01/21 08:50:17;;;;;;;9.60;5.65;;;1.10;99.90;;;;;;5094912;28;20107;-67
2023/01/21 08:52:48;;;;;;;11.02;5.78;;;1.20;99.90;;;;;;5094472;28;20047;-68
2023/01/21 08:55:14;;;;;;;8.73;5.53;;;1.20;99.90;;;;;;5095230;28;20022;-68
2023/01/21 08:57:40;;;;;;;8.90;5.00;;;1.20;99.90;;;;;;5094409;28;20020;-68
2023/01/21 09:00:06;;;;;;;11.10;5.65;;;1.20;99.90;;;;;;5094792;28;20098;-67
2023/01/21 09:02:31;;;;;;;9.98;5.68;;;1.20;99.90;;;;;;5094032;28;20056;-67
2023/01/21 09:04:57;;;;;;;9.75;5.50;;;1.20;99.90;;;;;;5094541;28;20476;-67
2023/01/21 09:07:23;;;;;;;7.93;4.80;;;1.20;99.90;;;;;;5094708;28;20048;-67
2023/01/21 09:09:48;;;;;;;9.07;5.43;;;1.20;99.90;;;;;;5090501;28;20032;-67
2023/01/21 09:12:14;;;;;;;8.70;5.20;;;1.20;99.90;;;;;;5074065;28;20070;-67
2023/01/21 09:14:40;;;;;;;11.50;5.57;;;1.20;99.90;;;;;;5076142;28;20471;-67
2023/01/21 09:17:05;;;;;;;9.70;4.97;;;1.30;99.90;;;;;;5075139;28;20028;-67
2023/01/21 09:19:31;;;;;;;8.25;5.03;;;1.20;99.90;;;;;;5072647;28;20032;-68
2023/01/21 09:21:57;;;;;;;8.73;5.18;;;1.20;99.90;;;;;;5073846;28;20359;-67
2023/01/21 09:24:23;;;;;;;9.38;5.57;;;1.20;99.90;;;;;;5073880;28;20477;-67
2023/01/21 09:26:49;;;;;;;7.70;5.00;;;1.20;99.90;;;;;;5073346;28;20040;-67
2023/01/21 09:29:15;;;;;;;9.38;5.18;;;1.10;99.90;;;;;;5073818;28;20090;-67
2023/01/21 09:31:40;;;;;;;8.57;5.28;;;1.10;99.90;;;;;;5073464;28;20024;-67
2023/01/21 09:34:08;;;;;;;8.73;5.75;;;1.10;99.90;;;;;;5073777;28;20434;-67
2023/01/21 09:36:34;;;;;;;8.25;5.85;;;1.10;99.90;;;;;;5073287;28;20028;-67
2023/01/21 09:39:00;;;;;;;8.50;5.80;;;1.10;99.90;;;;;;5072358;28;20177;-68
2023/01/21 09:41:48;;;;;;;7.40;4.97;;;1.10;99.90;;;;;;5073743;28;20028;-67
2023/01/21 09:44:31;;;;;;;9.63;5.20;;;1.10;99.90;;;;;;5073673;28;20029;-67
2023/01/21 09:47:21;;;;;;;9.85;4.72;;;1.00;99.90;;;;;;5073416;28;20021;-67
2023/01/21 09:50:01;;;;;;;9.38;5.35;;;1.00;99.90;;;;;;5073203;28;20035;-67
2023/01/21 09:52:50;;;;;;;8.32;4.72;;;1.10;99.90;;;;;;5091344;28;20507;-66
2023/01/21 09:55:18;;;;;;;8.57;4.43;;;1.00;99.90;;;;;;5093673;28;20035;-67
2023/01/21 09:58:03;;;;;;;6.85;4.30;;;1.00;99.90;;;;;;5093333;28;20028;-69
2023/01/21 10:01:01;;;;;;;7.40;4.60;;;1.00;99.90;;;;;;5093567;28;20030;-67
2023/01/21 10:03:33;;;;;;;8.50;4.68;;;1.00;99.90;;;;;;5089205;28;20048;-68
2023/01/21 10:06:20;;;;;;;7.47;4.75;;;1.00;99.90;;;;;;5093401;28;20020;-67
2023/01/21 10:09:00;;;;;;;7.57;4.95;;;1.00;99.90;;;;;;5093222;28;20036;-68
2023/01/21 10:11:47;;;;;;;8.20;4.88;;;1.00;99.90;;;;;;5093615;28;20034;-69
2023/01/21 10:14:44;;;;;;;7.22;4.72;;;1.10;99.90;;;;;;5093590;28;20028;-69
2023/01/21 10:17:28;;;;;;;10.73;5.18;;;1.00;99.90;;;;;;5093447;28;20032;-69
2023/01/21 10:20:15;;;;;;;7.63;4.85;;;1.00;99.90;;;;;;5091426;28;20035;-68
2023/01/21 10:22:49;;;;;;;6.85;4.50;;;1.10;99.90;;;;;;5092721;28;20468;-68
2023/01/21 10:25:21;;;;;;;8.38;4.78;;;1.10;99.90;;;;;;5093269;28;20495;-68
2023/01/21 10:27:47;;;;;;;9.43;5.30;;;1.10;99.90;;;;;;5093073;28;20520;-67
2023/01/21 10:30:34;;;;;;;7.20;4.80;;;1.10;99.90;;;;;;5093192;28;20100;-68
2023/01/21 10:33:00;;;;;;;6.40;4.55;;;1.10;99.90;;;;;;5093161;28;20048;-68
2023/01/21 10:35:54;;;;;;;6.35;4.05;;;1.20;99.90;;;;;;5092880;28;20048;-67
2023/01/21 10:38:47;;;;;;;6.63;4.43;;;1.20;99.90;;;;;;5092941;28;20028;-67
2023/01/21 10:41:42;;;;;;;7.10;4.88;;;1.20;99.90;;;;;;5091342;28;20484;-67
2023/01/21 10:44:23;;;;;;;9.13;4.53;;;1.30;99.90;;;;;;5093004;28;20499;-68
2023/01/21 10:46:55;;;;;;;;;;;1.30;99.90;;;;;;5093118;28;20024;-67
2023/01/21 10:49:30;;;;;;;8.25;4.80;;;1.30;99.90;;;;;;5092589;28;19904;-67
2023/01/21 10:52:05;;;;;;;8.52;4.57;;;1.30;99.90;;;;;;5092675;28;20036;-67
2023/01/21 10:54:48;;;;;;;8.82;4.90;;;1.30;99.90;;;;;;5091587;28;20111;-67
2023/01/21 10:57:23;;;;;;;7.22;4.50;;;1.30;99.90;;;;;;5092687;28;20024;-67
2023/01/21 10:59:50;;;;;;;8.13;4.90;;;1.30;99.90;;;;;;5092320;28;20024;-67
2023/01/21 11:02:32;;;;;;;7.70;5.05;;;1.40;99.90;;;;;;5092529;28;20445;-67
2023/01/21 11:05:03;;;;;;;8.43;4.85;;;1.30;99.90;;;;;;5092411;28;20024;-68
2023/01/21 11:07:35;;;;;;;8.27;4.85;;;1.30;99.90;;;;;;5092750;28;20027;-67
2023/01/21 11:10:03;;;;;;;8.27;5.25;;;1.20;99.90;;;;;;5092811;28;20020;-68
2023/01/21 11:12:31;;;;;;;7.97;4.82;;;1.20;99.90;;;;;;5092986;28;20036;-67
2023/01/21 11:15:06;;;;;;;7.85;5.18;;;1.20;99.90;;;;;;5092421;28;20831;-68
2023/01/21 11:17:34;;;;;;;8.32;5.05;;;1.20;99.90;;;;;;5073682;28;20028;-68
2023/01/21 11:20:02;;;;;;;9.60;5.20;;;1.20;99.90;;;;;;5072103;28;20502;-67
2023/01/21 11:22:31;;;;;;;5.43;3.72;;;1.20;99.90;;;;;;5072354;28;20024;-68
2023/01/21 11:24:57;;;;;;;11.63;5.18;;;1.20;99.90;;;;;;5071980;28;20033;-68
2023/01/21 11:27:37;;;;;;;6.88;4.20;;;1.10;99.90;;;;;;5072413;28;20142;-68
2023/01/21 11:30:05;;;;;;;7.63;4.80;;;1.10;99.90;;;;;;5072007;28;20021;-68
2023/01/21 11:32:31;;;;;;;8.02;4.60;;;1.00;99.90;;;;;;5072023;28;20474;-68
2023/01/21 11:35:08;;;;;;;7.82;4.47;;;1.10;99.90;;;;;;5071960;28;20083;-68
2023/01/21 11:37:35;;;;;;;6.72;4.65;;;1.10;99.90;;;;;;5072394;28;20492;-69
2023/01/21 11:40:10;;;;;;;5.78;4.10;;;1.10;99.90;;;;;;5071338;28;20511;-68
2023/01/21 11:42:53;;;;;;;7.07;4.70;;;1.10;99.90;;;;;;5072086;28;20036;-69
2023/01/21 11:45:35;;;;;;;8.82;5.18;;;1.10;99.90;;;;;;5072230;28;20032;-69
2023/01/21 11:48:14;;;;;;;7.15;4.60;;;1.10;99.90;;;;;;5071640;28;20020;-69
2023/01/21 11:50:40;;;;;;;8.95;5.55;;;1.10;99.90;;;;;;5071869;28;20025;-70
2023/01/21 11:53:06;;;;;;;9.07;4.88;;;1.10;99.90;;;;;;5072364;28;20382;-67
2023/01/21 11:55:40;;;;;;;9.15;5.40;;;1.10;99.90;;;;;;5074421;28;20107;-68
2023/01/21 11:58:19;;;;;;;8.30;5.00;;;1.10;99.90;;;;;;5071990;28;20437;-67
2023/01/21 12:00:48;;;;;;;7.32;4.65;;;1.10;99.90;;;;;;5072946;28;20024;-67
2023/01/21 12:03:16;;;;;;;8.35;4.97;;;1.10;99.90;;;;;;5074081;28;20031;-68
2023/01/21 12:05:48;;;;;;;8.57;5.20;;;1.20;99.90;;;;;;5075272;28;20032;-69
2023/01/21 12:08:21;;;;;;;;;;;1.20;99.90;;;;;;5076139;28;20064;-68
2023/01/21 12:10:49;;;;;;;8.73;4.63;;;1.10;99.90;;;;;;5075092;28;19904;-68
2023/01/21 12:13:24;;;;;;;6.25;4.40;;;1.10;99.90;;;;;;5075610;28;20027;-68
2023/01/21 12:16:07;;;;;;;11.02;5.07;;;1.10;99.90;;;;;;5073928;28;20029;-69
2023/01/21 12:19:07;;;;;;;7.30;4.95;;;1.10;99.90;;;;;;5075143;28;20031;-68
2023/01/21 12:21:48;;;;;;;7.78;5.07;;;1.10;99.90;;;;;;5075446;28;20063;-68
2023/01/21 12:24:34;;;;;;;8.25;4.70;;;1.20;99.90;;;;;;5075530;28;20528;-68
2023/01/21 12:27:08;;;;;;;6.32;4.65;;;1.20;99.90;;;;;;5074933;28;20586;-68
2023/01/21 12:29:41;;;;;;;7.38;4.72;;;1.20;99.90;;;;;;5075247;28;20084;-68
2023/01/21 12:32:33;;;;;;;8.02;4.90;;;1.20;99.90;;;;;;5074457;28;20032;-68
2023/01/21 12:35:11;;;;;;;7.03;4.70;;;1.20;99.90;;;;;;5071246;28;20041;-68
2023/01/21 12:37:52;;;;;;;7.60;4.25;;;1.20;99.90;;;;;;5084223;28;20052;-68
2023/01/21 12:40:18;;;;;;;;;;;1.20;99.90;;;;;;5080861;28;20056;-68
2023/01/21 12:42:50;;;;;;;9.38;5.03;;;1.20;99.90;;;;;;5074880;28;20015;-70
2023/01/21 12:45:22;;;;;;;8.07;4.28;;;1.20;99.90;;;;;;5071807;28;20025;-67
2023/01/21 12:48:06;;;;;;;8.73;4.88;;;1.20;99.90;;;;;;5071551;28;20112;-67
2023/01/21 12:50:44;;;;;;;8.05;4.90;;;1.20;99.90;;;;;;5074810;28;20032;-66
2023/01/21 12:53:35;;;;;;;8.68;5.22;;;1.20;99.90;;;;;;5072955;28;20047;-66
2023/01/21 12:56:10;;;;;;;9.80;6.03;;;1.20;99.90;;;;;;5053114;28;20067;-66
2023/01/21 12:58:41;;;;;;;8.93;4.63;;;1.20;99.90;;;;;;5054706;28;20103;-67
2023/01/21 13:01:27;;;;;;;10.07;5.43;;;1.30;99.90;;;;;;5053998;28;20037;-66
2023/01/21 13:04:37;;;;;;;7.57;4.63;;;1.30;99.90;;;;;;5070099;28;20036;-67
2023/01/21 13:07:33;;;;;;;8.02;5.30;;;1.30;99.90;;;;;;5068083;28;20046;-68